sensor_id;sensor_type;location;lat;lon;timestamp;temperature;humidity
7498;DHT22;3790;48.806;9.140;2023-11-21T07:34:12;6.90;99.90
7498;DHT22;3790;48.806;9.140;2023-11-21T07:39:12;7.10;99.90
7498;DHT22;3790;48.806;9.140;2023-11-21T07:44:13;7.50;99.90
7498;DHT22;3790;48.806;9.140;2023-11-21T07:49:13;7.80;99.90
7498;DHT22;3790;48.806;9.140;2023-11-21T07:54:16;8.00;99.90
7498;DHT22;3790;48.806;9.140;2023-11-21T07:59:17;8.50;99.90
7498;DHT22;3790;48.806;9.140;2023-11-21T08:04:18;8.60;99.90
7498;DHT22;3790;48.806;9.140;2023-11-21T08:09:19;8.90;99.90
7498;DHT22;3790;48.806;9.140;2023-11-21T08:14:19;9.00;99.90
7498;DHT22;3790;48.806;9.140;2023-11-21T08:19:20;9.20;99.90
7498;DHT22;3790;48.806;9.140;2023-11-21T08:24:21;9.40;99.90
7498;DHT22;3790;48.806;9.140;2023-11-21T08:29:22;9.50;99.90
7498;DHT22;3790;48.806;9.140;2023-11-21T08:34:23;9.70;99.90
7498;DHT22;3790;48.806;9.140;2023-11-21T08:39:24;10.00;99.90
7498;DHT22;3790;48.806;9.140;2023-11-21T08:44:25;10.30;99.90
7498;DHT22;3790;48.806;9.140;2023-11-21T08:49:25;10.40;99.90
7498;DHT22;3790;48.806;9.140;2023-11-21T08:54:28;10.50;99.90
7498;DHT22;3790;48.806;9.140;2023-11-21T08:59:28;10.50;99.90
7498;DHT22;3790;48.806;9.140;2023-11-21T09:04:29;10.60;99.90
7498;DHT22;3790;48.806;9.140;2023-11-21T09:09:29;10.60;99.90
7498;DHT22;3790;48.806;9.140;2023-11-21T09:14:30;10.70;99.90
7498;DHT22;3790;48.806;9.140;2023-11-21T09:19:30;10.80;99.90
7498;DHT22;3790;48.806;9.140;2023-11-21T09:24:34;10.80;99.90
7498;DHT22;3790;48.806;9.140;2023-11-21T09:29:35;10.70;99.90
7498;DHT22;3790;48.806;9.140;2023-11-21T09:34:38;10.70;99.90
7498;DHT22;3790;48.806;9.140;2023-11-21T09:39:39;10.60;99.90
7498;DHT22;3790;48.806;9.140;2023-11-21T09:49:57;10.00;99.90
7498;DHT22;3790;48.806;9.140;2023-11-21T09:55:02;9.50;99.90
7498;DHT22;3790;48.806;9.140;2023-11-21T10:00:02;9.40;99.90
7498;DHT22;3790;48.806;9.140;2023-11-21T10:05:06;9.20;99.90
7498;DHT22;3790;48.806;9.140;2023-11-21T10:10:10;9.00;99.90
7498;DHT22;3790;48.806;9.140;2023-11-21T10:15:11;8.90;99.90
7498;DHT22;3790;48.806;9.140;2023-11-21T10:20:16;8.90;99.90
7498;DHT22;3790;48.806;9.140;2023-11-21T10:25:18;9.10;99.90
7498;DHT22;3790;48.806;9.140;2023-11-21T10:30:20;9.30;99.90
7498;DHT22;3790;48.806;9.140;2023-11-21T10:35:21;9.50;99.90
7498;DHT22;3790;48.806;9.140;2023-11-21T10:40:21;9.60;99.90
7498;DHT22;3790;48.806;9.140;2023-11-21T10:45:23;9.50;99.90
7498;DHT22;3790;48.806;9.140;2023-11-21T10:50:23;9.20;99.90
7498;DHT22;3790;48.806;9.140;2023-11-21T10:55:26;9.60;99.90
7498;DHT22;3790;48.806;9.140;2023-11-21T11:00:27;9.80;99.90
7498;DHT22;3790;48.806;9.140;2023-11-21T11:05:29;10.20;99.90
7498;DHT22;3790;48.806;9.140;2023-11-21T11:10:30;10.10;99.90
7498;DHT22;3790;48.806;9.140;2023-11-21T11:15:30;10.00;99.90
7498;DHT22;3790;48.806;9.140;2023-11-21T11:20:34;10.00;99.90
7498;DHT22;3790;48.806;9.140;2023-11-21T11:25:45;9.80;99.90
7498;DHT22;3790;48.806;9.140;2023-11-21T11:31:18;9.60;99.90
7498;DHT22;3790;48.806;9.140;2023-11-21T11:36:44;9.50;99.90
7498;DHT22;3790;48.806;9.140;2023-11-21T11:41:47;9.60;99.90
7498;DHT22;3790;48.806;9.140;2023-11-21T11:46:47;9.80;99.90
7498;DHT22;3790;48.806;9.140;2023-11-21T11:51:48;10.00;99.90
7498;DHT22;3790;48.806;9.140;2023-11-21T11:56:49;10.10;99.90
7498;DHT22;3790;48.806;9.140;2023-11-21T12:01:49;10.30;99.90
7498;DHT22;3790;48.806;9.140;2023-11-21T12:06:53;10.20;99.90
7498;DHT22;3790;48.806;9.140;2023-11-21T12:11:55;10.30;99.90
7498;DHT22;3790;48.806;9.140;2023-11-21T12:16:59;10.30;99.90
7498;DHT22;3790;48.806;9.140;2023-11-21T12:22:00;10.30;99.90
7498;DHT22;3790;48.806;9.140;2023-11-21T12:27:01;10.30;99.90
7498;DHT22;3790;48.806;9.140;2023-11-21T12:32:02;10.00;99.90
7498;DHT22;3790;48.806;9.140;2023-11-21T12:37:02;10.10;99.90
7498;DHT22;3790;48.806;9.140;2023-11-21T12:42:03;9.50;99.90
7498;DHT22;3790;48.806;9.140;2023-11-21T12:47:04;9.40;99.90
7498;DHT22;3790;48.806;9.140;2023-11-21T12:52:06;9.40;99.90
7498;DHT22;3790;48.806;9.140;2023-11-21T12:57:06;9.50;99.90
7498;DHT22;3790;48.806;9.140;2023-11-21T13:02:08;9.90;99.90
7498;DHT22;3790;48.806;9.140;2023-11-21T13:07:09;10.10;99.90
7498;DHT22;3790;48.806;9.140;2023-11-21T13:12:14;10.30;99.90
7498;DHT22;3790;48.806;9.140;2023-11-21T13:17:18;10.10;99.90
7498;DHT22;3790;48.806;9.140;2023-11-21T13:22:19;9.60;99.90
7498;DHT22;3790;48.806;9.140;2023-11-21T13:27:19;9.40;99.90
7498;DHT22;3790;48.806;9.140;2023-11-21T13:32:21;9.10;99.90
7498;DHT22;3790;48.806;9.140;2023-11-21T13:37:22;8.80;99.90
7498;DHT22;3790;48.806;9.140;2023-11-21T13:42:25;8.90;99.90
7498;DHT22;3790;48.806;9.140;2023-11-21T13:47:28;9.00;99.90
7498;DHT22;3790;48.806;9.140;2023-11-21T13:52:31;8.90;99.90
7498;DHT22;3790;48.806;9.140;2023-11-21T13:57:34;8.80;99.90
7498;DHT22;3790;48.806;9.140;2023-11-21T14:02:34;8.80;99.90
7498;DHT22;3790;48.806;9.140;2023-11-21T14:07:39;8.90;99.90
7498;DHT22;3790;48.806;9.140;2023-11-21T14:12:48;8.80;99.90
7498;DHT22;3790;48.806;9.140;2023-11-21T14:17:48;8.80;99.90
7498;DHT22;3790;48.806;9.140;2023-11-21T14:22:49;8.80;99.90
7498;DHT22;3790;48.806;9.140;2023-11-21T14:27:51;8.80;99.90
7498;DHT22;3790;48.806;9.140;2023-11-21T14:32:51;8.90;99.90
7498;DHT22;3790;48.806;9.140;2023-11-21T14:37:52;9.00;99.90
7498;DHT22;3790;48.806;9.140;2023-11-21T14:42:53;9.20;99.90
7498;DHT22;3790;48.806;9.140;2023-11-21T14:47:54;9.20;99.90
7498;DHT22;3790;48.806;9.140;2023-11-21T14:53:16;9.30;99.90
7498;DHT22;3790;48.806;9.140;2023-11-21T14:58:23;9.20;99.90
7498;DHT22;3790;48.806;9.140;2023-11-21T15:03:28;9.20;99.90
7498;DHT22;3790;48.806;9.140;2023-11-21T15:08:31;9.20;99.90
7498;DHT22;3790;48.806;9.140;2023-11-21T15:13:32;9.20;99.90
7498;DHT22;3790;48.806;9.140;2023-11-21T15:18:33;9.30;99.90
7498;DHT22;3790;48.806;9.140;2023-11-21T15:23:35;9.20;99.90
7498;DHT22;3790;48.806;9.140;2023-11-21T15:28:36;9.30;99.90
7498;DHT22;3790;48.806;9.140;2023-11-21T15:33:36;9.30;99.90
7498;DHT22;3790;48.806;9.140;2023-11-21T15:38:37;9.20;99.90
7498;DHT22;3790;48.806;9.140;2023-11-21T15:43:38;8.90;99.90
7498;DHT22;3790;48.806;9.140;2023-11-21T15:48:38;9.00;99.90
7498;DHT22;3790;48.806;9.140;2023-11-21T15:53:44;8.90;99.90
7498;DHT22;3790;48.806;9.140;2023-11-21T15:58:44;8.90;99.90
7498;DHT22;3790;48.806;9.140;2023-11-21T16:03:47;8.90;99.90
7498;DHT22;3790;48.806;9.140;2023-11-21T16:08:48;8.90;99.90
7498;DHT22;3790;48.806;9.140;2023-11-21T16:13:49;8.90;99.90
7498;DHT22;3790;48.806;9.140;2023-11-21T16:18:50;8.80;99.90
7498;DHT22;3790;48.806;9.140;2023-11-21T16:23:50;8.80;99.90
7498;DHT22;3790;48.806;9.140;2023-11-21T16:28:51;8.70;99.90
7498;DHT22;3790;48.806;9.140;2023-11-21T16:33:51;8.60;99.90
7498;DHT22;3790;48.806;9.140;2023-11-21T16:38:52;8.60;99.90
7498;DHT22;3790;48.806;9.140;2023-11-21T16:43:54;8.40;99.90
7498;DHT22;3790;48.806;9.140;2023-11-21T16:48:54;8.30;99.90
7498;DHT22;3790;48.806;9.140;2023-11-21T16:53:55;8.10;99.90
7498;DHT22;3790;48.806;9.140;2023-11-21T16:58:55;8.10;99.90
7498;DHT22;3790;48.806;9.140;2023-11-21T17:03:56;8.00;99.90
7498;DHT22;3790;48.806;9.140;2023-11-21T17:09:00;7.70;99.90
7498;DHT22;3790;48.806;9.140;2023-11-21T17:14:06;7.70;99.90
7498;DHT22;3790;48.806;9.140;2023-11-21T17:19:07;7.70;99.90
7498;DHT22;3790;48.806;9.140;2023-11-21T17:24:07;7.60;99.90
7498;DHT22;3790;48.806;9.140;2023-11-21T17:29:10;7.60;99.90
7498;DHT22;3790;48.806;9.140;2023-11-21T17:34:17;7.50;99.90
7498;DHT22;3790;48.806;9.140;2023-11-21T17:39:19;7.50;99.90
7498;DHT22;3790;48.806;9.140;2023-11-21T17:44:20;7.60;99.90
